createdAt,value
2022-09-03T00:01:43.954Z,14.20
2022-09-03T00:04:25.972Z,14.20
2022-09-03T00:07:01.277Z,14.20
2022-09-03T00:09:46.973Z,14.10
2022-09-03T00:12:25.000Z,14.00
2022-09-03T00:15:00.932Z,14.00
2022-09-03T00:17:50.642Z,14.00
2022-09-03T00:20:24.942Z,14.10
2022-09-03T00:22:55.703Z,14.10
2022-09-03T00:26:10.438Z,14.00
2022-09-03T00:28:59.879Z,14.00
2022-09-03T00:31:39.045Z,14.00
2022-09-03T00:34:15.512Z,14.00
2022-09-03T00:36:45.997Z,14.00
2022-09-03T00:39:16.787Z,14.00
2022-09-03T00:42:08.247Z,14.00
2022-09-03T00:45:00.487Z,14.00
2022-09-03T00:48:03.717Z,13.90
2022-09-03T00:50:46.429Z,13.90
2022-09-03T00:53:34.787Z,13.90
2022-09-03T00:56:31.758Z,13.90
2022-09-03T00:59:09.418Z,13.80
2022-09-03T01:01:48.043Z,13.80
2022-09-03T01:04:36.537Z,13.80
2022-09-03T01:07:16.091Z,13.70
2022-09-03T01:09:54.030Z,13.70
2022-09-03T01:13:05.802Z,13.70
2022-09-03T01:15:51.729Z,13.60
2022-09-03T01:19:06.690Z,13.60
2022-09-03T01:22:06.099Z,13.50
2022-09-03T01:24:53.546Z,13.50
2022-09-03T01:27:35.360Z,13.50
2022-09-03T01:30:11.102Z,13.50
2022-09-03T01:32:46.061Z,13.40
2022-09-03T01:35:21.939Z,13.40
2022-09-03T01:38:18.658Z,13.40
2022-09-03T01:41:29.009Z,13.30
2022-09-03T01:44:21.049Z,13.30
2022-09-03T01:46:58.600Z,13.20
2022-09-03T01:49:41.551Z,13.20
2022-09-03T01:52:16.321Z,13.10
2022-09-03T01:55:08.202Z,13.20
2022-09-03T01:57:42.050Z,13.10
2022-09-03T02:00:13.978Z,13.10
2022-09-03T02:02:43.684Z,13.10
2022-09-03T02:05:14.365Z,13.10
2022-09-03T02:07:53.170Z,13.10
2022-09-03T02:10:30.069Z,13.20
2022-09-03T02:13:20.613Z,13.10
2022-09-03T02:15:50.724Z,13.00
2022-09-03T02:18:23.598Z,13.10
2022-09-03T02:20:53.584Z,13.00
2022-09-03T02:23:24.732Z,13.00
2022-09-03T02:26:01.909Z,13.00
2022-09-03T02:28:32.052Z,12.90
2022-09-03T02:30:59.894Z,12.90
2022-09-03T02:33:27.880Z,12.80
2022-09-03T02:35:55.821Z,12.80
2022-09-03T02:38:26.580Z,12.70
2022-09-03T02:40:54.620Z,12.70
2022-09-03T02:43:49.856Z,12.70
2022-09-03T02:46:27.953Z,12.70
2022-09-03T02:48:56.203Z,12.70
2022-09-03T02:51:23.773Z,12.70
2022-09-03T02:53:51.865Z,12.70
2022-09-03T02:56:19.281Z,12.60
2022-09-03T02:58:46.637Z,12.60
2022-09-03T03:01:21.779Z,12.60
2022-09-03T03:03:51.543Z,12.50
2022-09-03T03:06:22.662Z,12.50
2022-09-03T03:08:50.456Z,12.50
2022-09-03T03:11:18.663Z,12.60
2022-09-03T03:13:47.086Z,12.50
2022-09-03T03:16:15.919Z,12.60
2022-09-03T03:18:46.365Z,12.60
2022-09-03T03:21:16.543Z,12.60
2022-09-03T03:23:44.477Z,12.50
2022-09-03T03:26:14.491Z,12.50
2022-09-03T03:28:42.557Z,12.50
2022-09-03T03:31:16.368Z,12.40
2022-09-03T03:33:44.162Z,12.50
2022-09-03T03:36:14.695Z,12.50
2022-09-03T03:38:43.829Z,12.50
2022-09-03T03:41:14.021Z,12.50
2022-09-03T03:43:41.629Z,12.50
2022-09-03T03:46:10.425Z,12.50
2022-09-03T03:48:39.368Z,12.50
2022-09-03T03:51:09.162Z,12.50
2022-09-03T03:53:38.340Z,12.60
2022-09-03T03:56:11.391Z,12.60
2022-09-03T03:58:44.411Z,12.60
2022-09-03T04:01:20.467Z,12.60
2022-09-03T04:03:48.796Z,12.60
2022-09-03T04:06:19.238Z,12.60
2022-09-03T04:08:50.485Z,12.70
2022-09-03T04:11:21.580Z,12.70
2022-09-03T04:13:49.263Z,12.70
2022-09-03T04:16:19.878Z,12.80
2022-09-03T04:18:49.397Z,12.80
2022-09-03T04:21:19.435Z,12.80
2022-09-03T04:23:48.698Z,12.90
2022-09-03T04:26:19.138Z,12.90
2022-09-03T04:28:47.081Z,12.90
2022-09-03T04:31:17.545Z,13.00
2022-09-03T04:33:45.796Z,13.00
2022-09-03T04:36:14.231Z,13.00
2022-09-03T04:38:44.004Z,13.00
2022-09-03T04:41:14.691Z,13.10
2022-09-03T04:43:43.543Z,13.20
2022-09-03T04:46:16.163Z,13.20
2022-09-03T04:48:49.101Z,13.30
2022-09-03T04:51:18.692Z,13.40
2022-09-03T04:53:48.013Z,13.40
2022-09-03T04:56:24.025Z,13.30
2022-09-03T04:58:57.061Z,13.30
2022-09-03T05:01:27.320Z,13.40
2022-09-03T05:03:56.633Z,13.50
2022-09-03T05:06:25.710Z,13.50
2022-09-03T05:08:54.427Z,13.50
2022-09-03T05:11:22.767Z,13.60
2022-09-03T05:13:51.931Z,13.50
2022-09-03T05:16:19.956Z,13.60
2022-09-03T05:18:48.411Z,13.70
2022-09-03T05:21:18.359Z,13.70
2022-09-03T05:23:47.631Z,13.60
2022-09-03T05:26:18.495Z,13.60
2022-09-03T05:28:46.725Z,13.60
2022-09-03T05:31:20.741Z,13.60
2022-09-03T05:33:51.053Z,13.70
2022-09-03T05:36:21.029Z,13.80
2022-09-03T05:38:48.984Z,13.90
2022-09-03T05:41:18.986Z,14.00
2022-09-03T05:43:52.068Z,14.00
2022-09-03T05:46:20.223Z,14.00
2022-09-03T05:48:47.830Z,14.20
2022-09-03T05:51:17.053Z,14.20
2022-09-03T05:53:46.604Z,14.20
2022-09-03T05:56:18.129Z,14.30
2022-09-03T05:58:53.588Z,14.40
2022-09-03T06:01:23.302Z,14.40
2022-09-03T06:03:58.710Z,14.40
2022-09-03T06:06:27.432Z,14.40
2022-09-03T06:08:58.365Z,14.50
2022-09-03T06:11:28.838Z,14.60
2022-09-03T06:13:58.071Z,14.50
2022-09-03T06:16:31.471Z,14.60
2022-09-03T06:19:07.304Z,14.60
2022-09-03T06:21:35.245Z,14.60
2022-09-03T06:24:03.227Z,14.70
2022-09-03T06:26:30.784Z,14.70
2022-09-03T06:28:58.391Z,14.70
2022-09-03T06:31:26.384Z,14.70
2022-09-03T06:33:54.920Z,14.90
2022-09-03T06:36:24.735Z,14.90
2022-09-03T06:38:54.064Z,14.90
2022-09-03T06:41:26.508Z,15.00
2022-09-03T06:43:59.332Z,15.00
2022-09-03T06:46:26.809Z,15.00
2022-09-03T06:48:55.669Z,15.00
2022-09-03T06:51:26.321Z,15.00
2022-09-03T06:54:02.118Z,15.10
2022-09-03T06:56:30.387Z,15.10
2022-09-03T06:58:59.771Z,15.20
2022-09-03T07:01:32.331Z,15.20
2022-09-03T07:04:02.053Z,15.10
2022-09-03T07:06:37.551Z,15.20
2022-09-03T07:09:16.388Z,15.20
2022-09-03T07:11:49.915Z,15.30
2022-09-03T07:14:19.643Z,15.30
2022-09-03T07:16:48.858Z,15.40
2022-09-03T07:19:17.253Z,15.60
2022-09-03T07:21:50.073Z,15.50
2022-09-03T07:24:19.954Z,15.60
2022-09-03T07:26:48.952Z,15.60
2022-09-03T07:29:20.599Z,15.60
2022-09-03T07:31:52.166Z,15.50
2022-09-03T07:34:22.231Z,15.50
2022-09-03T07:36:51.830Z,15.50
2022-09-03T07:39:20.149Z,15.60
2022-09-03T07:41:47.913Z,15.50
2022-09-03T07:44:19.681Z,15.50
2022-09-03T07:46:51.636Z,15.50
2022-09-03T07:49:21.276Z,15.60
2022-09-03T07:51:50.964Z,15.70
2022-09-03T07:54:18.431Z,16.10
2022-09-03T07:56:45.958Z,16.20
2022-09-03T07:59:13.711Z,16.30
2022-09-03T08:01:41.330Z,16.50
2022-09-03T08:04:11.018Z,16.80
2022-09-03T08:06:38.943Z,16.70
2022-09-03T08:09:10.009Z,16.70
2022-09-03T08:11:38.548Z,16.70
2022-09-03T08:14:09.048Z,16.70
2022-09-03T08:16:39.748Z,16.60
2022-09-03T08:19:07.696Z,16.70
2022-09-03T08:21:35.781Z,16.60
2022-09-03T08:24:04.954Z,16.70
2022-09-03T08:26:34.908Z,16.80
2022-09-03T08:29:02.726Z,16.80
2022-09-03T08:31:30.847Z,16.80
2022-09-03T08:34:00.567Z,16.70
2022-09-03T08:36:30.336Z,16.50
2022-09-03T08:39:04.040Z,16.40
2022-09-03T08:41:53.186Z,16.40
2022-09-03T08:44:47.500Z,16.50
2022-09-03T08:47:28.804Z,16.50
2022-09-03T08:50:12.782Z,16.40
2022-09-03T08:52:49.212Z,16.20
2022-09-03T08:55:28.350Z,16.10
2022-09-03T08:58:16.540Z,16.10
2022-09-03T09:01:02.144Z,16.20
2022-09-03T09:03:59.541Z,16.10
2022-09-03T09:06:48.952Z,16.30
2022-09-03T09:09:35.577Z,16.40
2022-09-03T09:12:21.688Z,16.50
2022-09-03T09:15:26.575Z,16.60
2022-09-03T09:18:12.620Z,16.70
2022-09-03T09:21:01.175Z,16.80
2022-09-03T09:23:57.790Z,16.80
2022-09-03T09:26:25.300Z,16.90
2022-09-03T09:29:05.770Z,16.90
2022-09-03T09:31:39.355Z,17.10
2022-09-03T09:34:08.598Z,17.10
2022-09-03T09:36:51.160Z,17.40
2022-09-03T09:39:19.411Z,17.40
2022-09-03T09:42:09.693Z,17.50
2022-09-03T09:44:43.046Z,17.50
2022-09-03T09:47:31.754Z,17.50
2022-09-03T09:50:02.491Z,17.50
2022-09-03T09:52:31.754Z,17.30
2022-09-03T09:55:26.729Z,17.20
2022-09-03T09:58:04.601Z,17.10
2022-09-03T10:00:35.009Z,17.30
2022-09-03T10:03:02.527Z,17.40
2022-09-03T10:05:33.830Z,17.60
2022-09-03T10:08:21.274Z,17.50
2022-09-03T10:10:50.524Z,17.50
2022-09-03T10:13:36.527Z,17.60
2022-09-03T10:16:13.707Z,17.60
2022-09-03T10:19:17.602Z,17.70
2022-09-03T10:21:56.211Z,17.90
2022-09-03T10:24:35.017Z,17.80
2022-09-03T10:27:02.522Z,18.10
2022-09-03T10:29:30.298Z,18.30
2022-09-03T10:32:43.837Z,18.40
2022-09-03T10:35:20.867Z,18.40
2022-09-03T10:38:15.552Z,18.30
2022-09-03T10:41:13.983Z,18.30
2022-09-03T10:43:53.413Z,18.40
2022-09-03T10:46:29.052Z,18.40
2022-09-03T10:49:23.666Z,18.50
2022-09-03T10:52:03.733Z,18.20
2022-09-03T10:54:43.905Z,17.90
2022-09-03T10:57:32.552Z,17.70
2022-09-03T11:00:13.718Z,17.70
2022-09-03T11:03:00.197Z,17.70
2022-09-03T11:05:40.513Z,17.50
2022-09-03T11:08:14.393Z,17.20
2022-09-03T11:10:54.963Z,17.10
2022-09-03T11:13:31.729Z,17.20
2022-09-03T11:16:12.280Z,17.20
2022-09-03T11:18:48.993Z,17.20
2022-09-03T11:21:19.931Z,17.30
2022-09-03T11:24:04.468Z,17.30
2022-09-03T11:26:34.055Z,17.30
2022-09-03T11:29:24.050Z,17.30
2022-09-03T11:32:01.639Z,17.40
2022-09-03T11:34:33.265Z,17.50
2022-09-03T11:37:19.192Z,17.40
2022-09-03T11:40:03.786Z,17.50
2022-09-03T11:42:38.264Z,17.60
2022-09-03T11:45:27.393Z,17.70
2022-09-03T11:47:55.148Z,17.80
2022-09-03T11:50:28.409Z,17.80
2022-09-03T11:53:23.307Z,17.80
2022-09-03T11:56:04.392Z,17.70
2022-09-03T11:58:40.750Z,17.80
2022-09-03T12:01:16.348Z,17.90
2022-09-03T12:04:08.315Z,17.90
2022-09-03T12:07:00.446Z,17.80
2022-09-03T12:09:52.533Z,17.70
2022-09-03T12:12:44.155Z,17.70
2022-09-03T12:15:22.608Z,17.60
2022-09-03T12:18:16.554Z,17.80
2022-09-03T12:20:44.416Z,17.90
2022-09-03T12:23:15.253Z,17.80
2022-09-03T12:25:49.662Z,17.90
2022-09-03T12:28:23.692Z,17.80
2022-09-03T12:30:53.603Z,17.80
2022-09-03T12:33:23.390Z,17.70
2022-09-03T12:36:02.181Z,17.90
2022-09-03T12:38:40.611Z,18.00
2022-09-03T12:41:31.386Z,18.00
2022-09-03T12:44:00.813Z,17.90
2022-09-03T12:46:33.996Z,18.00
2022-09-03T12:52:05.459Z,18.10
2022-09-03T12:54:36.972Z,18.00
2022-09-03T12:57:05.208Z,18.00
2022-09-03T12:59:37.024Z,17.90
2022-09-03T13:02:23.856Z,17.90
2022-09-03T13:04:52.935Z,17.90
2022-09-03T13:07:39.096Z,17.90
2022-09-03T13:10:32.458Z,17.90
2022-09-03T13:13:15.849Z,17.90
2022-09-03T13:16:01.759Z,17.90
2022-09-03T13:18:34.842Z,17.90
2022-09-03T13:21:39.150Z,17.90
2022-09-03T13:24:19.717Z,17.90
2022-09-03T13:27:28.424Z,18.00
2022-09-03T13:30:13.430Z,18.00
2022-09-03T13:32:57.679Z,18.00
2022-09-03T13:35:32.666Z,17.90
2022-09-03T13:38:24.765Z,17.80
2022-09-03T13:40:58.577Z,17.90
2022-09-03T13:43:42.585Z,17.90
2022-09-03T13:46:21.346Z,18.00
2022-09-03T13:49:09.023Z,18.00
2022-09-03T13:51:49.871Z,18.00
2022-09-03T13:54:48.110Z,18.00
2022-09-03T13:57:37.760Z,18.10
2022-09-03T14:00:12.391Z,18.20
2022-09-03T14:02:52.837Z,18.20
2022-09-03T14:05:46.106Z,18.40
2022-09-03T14:08:35.804Z,18.80
2022-09-03T14:11:29.099Z,19.00
2022-09-03T14:14:11.619Z,19.10
2022-09-03T14:16:41.940Z,19.30
2022-09-03T14:19:27.814Z,19.30
2022-09-03T14:22:18.608Z,19.20
2022-09-03T14:25:14.861Z,19.10
2022-09-03T14:27:42.699Z,19.10
2022-09-03T14:30:40.710Z,18.90
2022-09-03T14:33:31.602Z,18.60
2022-09-03T14:36:01.567Z,18.60
2022-09-03T14:38:53.260Z,18.40
2022-09-03T14:41:29.595Z,18.30
2022-09-03T14:44:21.996Z,18.30
2022-09-03T14:46:52.074Z,18.30
2022-09-03T14:50:03.361Z,18.10
2022-09-03T14:52:49.669Z,18.00
2022-09-03T14:55:38.259Z,17.90
2022-09-03T14:58:25.331Z,17.80
2022-09-03T15:01:03.251Z,17.70
2022-09-03T15:04:15.348Z,17.60
2022-09-03T15:07:07.265Z,17.50
2022-09-03T15:09:40.386Z,17.50
2022-09-03T15:12:13.427Z,17.40
2022-09-03T15:14:53.151Z,17.30
2022-09-03T15:17:55.833Z,17.20
2022-09-03T15:20:36.535Z,17.10
2022-09-03T15:23:31.278Z,17.10
2022-09-03T15:26:04.939Z,17.10
2022-09-03T15:29:09.074Z,17.10
2022-09-03T15:31:51.624Z,17.00
2022-09-03T15:34:40.674Z,16.90
2022-09-03T15:37:18.955Z,16.90
2022-09-03T15:39:48.163Z,16.80
2022-09-03T15:42:26.146Z,16.70
2022-09-03T15:45:00.845Z,16.70
2022-09-03T15:47:51.709Z,16.70
2022-09-03T15:50:38.553Z,16.80
2022-09-03T15:53:35.034Z,16.80
2022-09-03T15:56:13.843Z,16.70
2022-09-03T15:58:59.830Z,16.70
2022-09-03T16:02:02.285Z,16.70
2022-09-03T16:04:41.411Z,16.60
2022-09-03T16:07:26.941Z,16.60
2022-09-03T16:10:25.507Z,16.60
2022-09-03T16:13:29.256Z,16.60
2022-09-03T16:15:59.679Z,16.50
2022-09-03T16:18:33.037Z,16.50
2022-09-03T16:21:06.637Z,16.50
2022-09-03T16:23:52.349Z,16.40
2022-09-03T16:26:54.851Z,16.30
2022-09-03T16:29:27.283Z,16.30
2022-09-03T16:32:13.155Z,16.20
2022-09-03T16:35:28.126Z,16.10
2022-09-03T16:38:01.510Z,16.10
2022-09-03T16:40:35.130Z,16.10
2022-09-03T16:43:43.451Z,16.00
2022-09-03T16:46:24.379Z,16.00
2022-09-03T16:49:12.764Z,15.90
2022-09-03T16:51:51.283Z,15.90
2022-09-03T16:54:42.467Z,15.90
2022-09-03T16:57:48.705Z,15.90
2022-09-03T17:00:20.378Z,15.80
2022-09-03T17:03:05.816Z,15.80
2022-09-03T17:05:52.808Z,15.70
2022-09-03T17:08:26.320Z,15.70
2022-09-03T17:11:34.752Z,15.70
2022-09-03T17:14:32.573Z,15.70
2022-09-03T17:17:11.562Z,15.70
2022-09-03T17:19:46.252Z,15.60
2022-09-03T17:22:51.321Z,15.70
2022-09-03T17:25:36.974Z,15.60
2022-09-03T17:28:25.075Z,15.60
2022-09-03T17:31:12.084Z,15.60
2022-09-03T17:34:03.760Z,15.50
2022-09-03T17:36:37.200Z,15.50
2022-09-03T17:39:23.362Z,15.50
2022-09-03T17:41:53.464Z,15.50
2022-09-03T17:44:44.240Z,15.50
2022-09-03T17:48:05.594Z,15.50
2022-09-03T17:51:03.288Z,15.50
2022-09-03T17:53:54.434Z,15.50
2022-09-03T17:56:24.691Z,15.50
2022-09-03T17:59:09.242Z,15.40
2022-09-03T18:01:45.740Z,15.40
2022-09-03T18:04:53.844Z,15.40
2022-09-03T18:07:53.607Z,15.30
2022-09-03T18:10:51.824Z,15.30
2022-09-03T18:13:48.672Z,15.30
2022-09-03T18:16:21.814Z,15.30
2022-09-03T18:18:52.889Z,15.20
2022-09-03T18:21:45.925Z,15.20
2022-09-03T18:24:53.637Z,15.20
2022-09-03T18:27:58.561Z,15.10
2022-09-03T18:30:46.628Z,15.10
2022-09-03T18:33:39.162Z,15.10
2022-09-03T18:36:25.258Z,15.10
2022-09-03T18:39:58.438Z,15.10
2022-09-03T18:43:11.524Z,15.10
2022-09-03T18:49:38.170Z,15.00
2022-09-03T18:52:30.266Z,15.00
2022-09-03T18:55:34.911Z,15.00
2022-09-03T18:58:33.609Z,15.00
2022-09-03T19:01:54.334Z,15.00
2022-09-03T19:05:03.782Z,15.00
2022-09-03T19:08:04.755Z,15.00
2022-09-03T19:11:14.291Z,14.90
2022-09-03T19:14:00.907Z,14.90
2022-09-03T19:17:20.975Z,14.90
2022-09-03T19:20:24.289Z,14.80
2022-09-03T19:23:10.279Z,14.80
2022-09-03T19:25:56.390Z,14.80
2022-09-03T19:28:50.332Z,14.80
2022-09-03T19:32:03.993Z,14.70
2022-09-03T19:35:31.350Z,14.70
2022-09-03T19:38:55.742Z,14.60
2022-09-03T19:41:55.384Z,14.60
2022-09-03T19:45:19.253Z,14.60
2022-09-03T19:48:17.213Z,14.60
2022-09-03T19:51:16.897Z,14.60
2022-09-03T19:54:06.515Z,14.60
2022-09-03T19:56:55.503Z,14.50
2022-09-03T19:59:45.144Z,14.50
2022-09-03T20:02:31.245Z,14.50
2022-09-03T20:05:19.493Z,14.50
2022-09-03T20:08:10.867Z,14.50
2022-09-03T20:10:38.166Z,14.50
2022-09-03T20:13:16.519Z,14.50
2022-09-03T20:16:24.759Z,14.50
2022-09-03T20:19:01.070Z,14.50
2022-09-03T20:21:29.540Z,14.40
2022-09-03T20:24:21.170Z,14.50
2022-09-03T20:27:01.697Z,14.50
2022-09-03T20:29:32.011Z,14.60
2022-09-03T20:32:09.587Z,14.60
2022-09-03T20:35:02.990Z,14.70
2022-09-03T20:38:03.859Z,14.70
2022-09-03T20:40:51.821Z,14.70
2022-09-03T20:44:23.685Z,14.70
2022-09-03T20:47:05.627Z,14.70
2022-09-03T20:49:51.478Z,14.60
2022-09-03T20:52:26.313Z,14.60
2022-09-03T20:55:12.974Z,14.60
2022-09-03T20:57:48.699Z,14.70
2022-09-03T21:00:18.563Z,14.70
2022-09-03T21:02:50.930Z,14.80
2022-09-03T21:05:31.448Z,14.80
2022-09-03T21:08:25.695Z,14.80
2022-09-03T21:10:58.951Z,14.70
2022-09-03T21:13:41.316Z,14.70
2022-09-03T21:16:27.392Z,14.60
2022-09-03T21:18:58.360Z,14.60
2022-09-03T21:21:54.242Z,14.60
2022-09-03T21:24:31.404Z,14.60
2022-09-03T21:27:06.600Z,14.50
2022-09-03T21:29:59.165Z,14.40
2022-09-03T21:32:33.740Z,14.40
2022-09-03T21:35:27.817Z,14.30
2022-09-03T21:38:05.514Z,14.30
2022-09-03T21:40:35.915Z,14.30
2022-09-03T21:43:15.473Z,14.30
2022-09-03T21:46:12.185Z,14.30
2022-09-03T21:48:57.294Z,14.20
2022-09-03T21:51:37.524Z,14.20
2022-09-03T21:54:21.844Z,14.20
2022-09-03T21:57:07.539Z,14.20
2022-09-03T21:59:56.051Z,14.20
2022-09-03T22:02:33.355Z,14.20
2022-09-03T22:05:02.119Z,14.20
2022-09-03T22:07:58.729Z,14.20
2022-09-03T22:10:46.929Z,14.20
2022-09-03T22:13:22.360Z,14.30
2022-09-03T22:15:51.720Z,14.20
2022-09-03T22:18:29.415Z,14.20
2022-09-03T22:21:03.382Z,14.20
2022-09-03T22:23:43.742Z,14.30
2022-09-03T22:26:24.221Z,14.30
2022-09-03T22:29:09.133Z,14.30
2022-09-03T22:32:03.514Z,14.30
2022-09-03T22:34:56.355Z,14.30
2022-09-03T22:37:47.269Z,14.30
2022-09-03T22:40:17.518Z,14.30
2022-09-03T22:42:50.190Z,14.20
2022-09-03T22:45:44.148Z,14.20
2022-09-03T22:48:32.176Z,14.30
2022-09-03T22:51:01.908Z,14.20
2022-09-03T22:53:50.717Z,14.30
2022-09-03T22:56:22.347Z,14.20
2022-09-03T22:59:11.648Z,14.20
2022-09-03T23:01:56.838Z,14.10
2022-09-03T23:04:52.922Z,14.10
2022-09-03T23:07:35.121Z,14.10
2022-09-03T23:10:08.903Z,14.00
2022-09-03T23:12:47.032Z,14.10
2022-09-03T23:15:29.465Z,14.10
2022-09-03T23:18:09.142Z,14.00
2022-09-03T23:20:41.072Z,14.00
2022-09-03T23:23:22.214Z,14.00
2022-09-03T23:25:51.536Z,14.00
2022-09-03T23:28:32.356Z,14.00
2022-09-03T23:31:17.391Z,14.00
2022-09-03T23:33:46.492Z,14.00
2022-09-03T23:36:57.793Z,14.00
2022-09-03T23:39:20.055Z,14.00
2022-09-03T23:41:54.086Z,14.00
2022-09-03T23:44:40.171Z,14.00
2022-09-03T23:47:28.861Z,13.90
2022-09-03T23:50:05.214Z,14.00
2022-09-03T23:52:53.144Z,14.00
2022-09-03T23:55:55.918Z,14.00
2022-09-03T23:58:47.604Z,14.00
